createdAt,value
2018-07-25T00:00:37.379Z,75.62
2018-07-25T00:03:06.873Z,76.75
2018-07-25T00:05:36.363Z,76.02
2018-07-25T00:08:05.839Z,77.09
2018-07-25T00:10:40.559Z,77.38
2018-07-25T00:13:09.887Z,77.59
2018-07-25T00:15:39.278Z,78.92
2018-07-25T00:18:08.759Z,78.16
2018-07-25T00:20:38.214Z,78.05
2018-07-25T00:23:07.697Z,78.95
2018-07-25T00:25:37.138Z,78.70
2018-07-25T00:28:06.482Z,80.57
2018-07-25T00:30:35.864Z,80.25
2018-07-25T00:33:05.216Z,79.26
2018-07-25T00:35:34.634Z,80.04
2018-07-25T00:38:04.038Z,80.62
2018-07-25T00:40:33.304Z,80.78
2018-07-25T00:43:02.655Z,81.53
2018-07-25T00:45:32.047Z,81.04
2018-07-25T00:48:01.170Z,81.76
2018-07-25T00:50:30.575Z,81.03
2018-07-25T00:52:59.893Z,81.94
2018-07-25T00:55:29.331Z,82.63
2018-07-25T00:57:58.553Z,81.83
2018-07-25T01:00:27.887Z,82.21
2018-07-25T01:02:57.148Z,82.29
2018-07-25T01:05:26.467Z,81.71
2018-07-25T01:07:55.751Z,81.62
2018-07-25T01:10:25.131Z,80.82
2018-07-25T01:12:54.400Z,81.46
2018-07-25T01:15:23.691Z,81.55
2018-07-25T01:17:53.015Z,81.06
2018-07-25T01:20:22.359Z,81.65
2018-07-25T01:22:51.667Z,81.40
2018-07-25T01:25:20.945Z,80.90
2018-07-25T01:27:50.326Z,81.35
2018-07-25T01:30:19.717Z,81.42
2018-07-25T01:32:49.060Z,81.06
2018-07-25T01:35:18.450Z,80.33
2018-07-25T01:37:47.738Z,79.95
2018-07-25T01:40:17.095Z,80.85
2018-07-25T01:42:46.402Z,81.27
2018-07-25T01:45:15.808Z,81.06
2018-07-25T01:47:45.105Z,81.54
2018-07-25T01:50:14.418Z,81.83
2018-07-25T01:52:43.930Z,83.24
2018-07-25T01:55:13.205Z,83.94
2018-07-25T01:57:42.501Z,83.66
2018-07-25T02:00:11.843Z,83.21
2018-07-25T02:02:41.161Z,82.34
2018-07-25T02:05:10.460Z,83.13
2018-07-25T02:07:39.753Z,83.18
2018-07-25T02:10:09.070Z,83.56
2018-07-25T02:12:38.438Z,84.19
2018-07-25T02:15:08.520Z,84.71
2018-07-25T02:17:44.364Z,84.82
2018-07-25T02:20:13.683Z,85.30
2018-07-25T02:22:43.091Z,85.34
2018-07-25T02:25:12.421Z,85.29
2018-07-25T02:27:41.747Z,84.44
2018-07-25T02:30:11.064Z,84.32
2018-07-25T02:32:40.345Z,84.43
2018-07-25T02:35:09.659Z,84.86
2018-07-25T02:37:39.003Z,84.10
2018-07-25T02:40:08.342Z,84.12
2018-07-25T02:42:37.742Z,84.37
2018-07-25T02:45:07.119Z,83.74
2018-07-25T02:47:36.413Z,83.37
2018-07-25T02:50:06.259Z,84.00
2018-07-25T02:52:35.579Z,84.08
2018-07-25T02:55:05.026Z,84.69
2018-07-25T02:57:34.365Z,85.28
2018-07-25T03:00:03.831Z,85.51
2018-07-25T03:02:33.167Z,85.69
2018-07-25T03:05:02.606Z,86.19
2018-07-25T03:07:31.921Z,87.68
2018-07-25T03:10:01.293Z,88.23
2018-07-25T03:12:30.633Z,88.75
2018-07-25T03:15:00.042Z,87.52
2018-07-25T03:17:29.452Z,88.09
2018-07-25T03:19:58.861Z,88.67
2018-07-25T03:22:28.294Z,88.63
2018-07-25T03:24:57.583Z,88.83
2018-07-25T03:27:26.880Z,88.35
2018-07-25T03:29:56.186Z,88.73
2018-07-25T03:32:25.516Z,89.23
2018-07-25T03:34:54.850Z,89.79
2018-07-25T03:37:24.533Z,89.19
2018-07-25T03:39:53.890Z,89.71
2018-07-25T03:42:23.210Z,89.93
2018-07-25T03:44:52.734Z,89.75
2018-07-25T03:47:22.030Z,89.50
2018-07-25T03:49:51.406Z,89.98
2018-07-25T03:52:20.714Z,90.86
2018-07-25T03:54:50.091Z,91.33
2018-07-25T03:57:19.383Z,91.04
2018-07-25T03:59:48.711Z,90.63
2018-07-25T04:02:18.115Z,90.53
2018-07-25T04:04:47.498Z,91.58
2018-07-25T04:07:16.775Z,91.25
2018-07-25T04:09:46.136Z,90.65
2018-07-25T04:12:15.371Z,89.78
2018-07-25T04:14:44.828Z,89.73
2018-07-25T04:17:14.104Z,88.90
2018-07-25T04:19:43.519Z,88.16
2018-07-25T04:22:12.890Z,87.50
2018-07-25T04:24:42.211Z,87.35
2018-07-25T04:27:11.453Z,87.27
2018-07-25T04:29:40.735Z,85.87
2018-07-25T04:32:10.032Z,85.40
2018-07-25T04:34:39.406Z,84.95
2018-07-25T04:37:08.770Z,84.88
2018-07-25T04:39:38.049Z,84.81
2018-07-25T04:42:07.362Z,84.67
2018-07-25T04:44:36.875Z,84.89
2018-07-25T04:47:06.109Z,84.67
2018-07-25T04:49:35.450Z,84.24
2018-07-25T04:52:04.783Z,84.56
2018-07-25T04:54:34.045Z,83.25
2018-07-25T04:57:03.362Z,82.51
2018-07-25T04:59:32.690Z,82.91
2018-07-25T05:02:02.054Z,82.22
2018-07-25T05:04:31.498Z,81.84
2018-07-25T05:07:00.814Z,80.83
2018-07-25T05:09:30.089Z,78.75
2018-07-25T05:11:59.817Z,74.66
2018-07-25T05:14:29.061Z,71.57
2018-07-25T05:16:58.488Z,70.28
2018-07-25T05:19:27.897Z,68.82
2018-07-25T05:21:57.257Z,67.78
2018-07-25T05:24:26.485Z,66.69
2018-07-25T05:26:55.786Z,66.96
2018-07-25T05:29:25.138Z,64.34
2018-07-25T05:31:54.448Z,63.86
2018-07-25T05:34:23.690Z,62.52
2018-07-25T05:36:53.074Z,61.85
2018-07-25T05:39:22.423Z,63.68
2018-07-25T05:41:51.476Z,62.29
2018-07-25T05:44:20.789Z,60.73
2018-07-25T05:46:50.354Z,63.50
2018-07-25T05:49:19.639Z,60.95
2018-07-25T05:51:48.905Z,59.65
2018-07-25T05:54:18.166Z,60.06
2018-07-25T05:56:47.462Z,61.06
2018-07-25T05:59:16.665Z,59.06
2018-07-25T06:01:45.952Z,58.77
2018-07-25T06:04:15.189Z,58.47
2018-07-25T06:06:44.442Z,60.41
2018-07-25T06:09:13.746Z,57.98
2018-07-25T06:11:43.100Z,58.04
2018-07-25T06:14:12.431Z,57.81
2018-07-25T06:16:41.710Z,58.48
2018-07-25T06:19:10.975Z,58.22
2018-07-25T06:21:40.259Z,57.98
2018-07-25T06:24:09.560Z,58.28
2018-07-25T06:26:38.896Z,55.89
2018-07-25T06:29:08.130Z,55.67
2018-07-25T06:31:37.428Z,54.96
2018-07-25T06:34:07.426Z,55.31
2018-07-25T06:36:36.981Z,55.56
2018-07-25T06:39:11.055Z,55.30
2018-07-25T06:41:40.492Z,54.85
2018-07-25T06:44:10.618Z,54.50
2018-07-25T06:46:39.959Z,55.25
2018-07-25T06:49:09.264Z,53.91
2018-07-25T06:51:38.534Z,54.61
2018-07-25T06:54:08.169Z,56.12
2018-07-25T06:56:37.388Z,53.85
2018-07-25T06:59:06.678Z,54.89
2018-07-25T07:01:36.109Z,53.84
2018-07-25T07:04:05.534Z,52.18
2018-07-25T07:06:34.940Z,52.62
2018-07-25T07:09:05.222Z,53.92
2018-07-25T07:11:34.650Z,53.99
2018-07-25T07:14:04.092Z,52.52
2018-07-25T07:16:33.453Z,52.55
2018-07-25T07:19:02.791Z,51.50
2018-07-25T07:21:32.120Z,51.38
2018-07-25T07:24:01.566Z,51.63
2018-07-25T07:26:30.948Z,51.75
2018-07-25T07:29:00.232Z,51.47
2018-07-25T07:31:29.692Z,51.45
2018-07-25T07:33:58.927Z,51.87
2018-07-25T07:36:27.939Z,52.02
2018-07-25T07:38:57.285Z,50.79
2018-07-25T07:41:26.657Z,52.47
2018-07-25T07:43:56.060Z,50.35
2018-07-25T07:46:25.487Z,51.50
2018-07-25T07:48:54.910Z,49.23
2018-07-25T07:51:24.314Z,50.19
2018-07-25T07:53:53.664Z,49.75
2018-07-25T07:56:23.003Z,49.81
2018-07-25T07:58:52.385Z,49.79
2018-07-25T08:01:21.905Z,49.03
2018-07-25T08:03:51.313Z,48.39
2018-07-25T08:06:20.645Z,49.17
2018-07-25T08:08:50.080Z,47.68
2018-07-25T08:11:20.336Z,47.88
2018-07-25T08:13:50.627Z,47.32
2018-07-25T08:16:19.975Z,47.32
2018-07-25T08:18:49.239Z,46.17
2018-07-25T08:21:18.521Z,45.19
2018-07-25T08:23:47.777Z,44.22
2018-07-25T08:26:17.054Z,43.77
2018-07-25T08:28:46.382Z,42.76
2018-07-25T08:31:15.688Z,41.48
2018-07-25T08:33:44.991Z,41.42
2018-07-25T08:36:14.222Z,39.38
2018-07-25T08:38:44.717Z,40.98
2018-07-25T08:41:14.021Z,42.66
2018-07-25T08:43:43.535Z,43.28
2018-07-25T08:46:13.243Z,42.36
2018-07-25T08:48:42.505Z,42.66
2018-07-25T08:51:11.745Z,40.51
2018-07-25T08:53:41.018Z,39.97
2018-07-25T08:56:10.283Z,39.84
2018-07-25T08:58:39.539Z,39.08
2018-07-25T09:01:08.962Z,37.37
2018-07-25T09:03:38.291Z,35.30
2018-07-25T09:06:07.866Z,34.57
2018-07-25T09:08:37.165Z,34.58
2018-07-25T09:11:06.700Z,31.92
2018-07-25T09:13:36.007Z,32.42
2018-07-25T09:16:05.395Z,33.22
2018-07-25T09:18:34.711Z,32.73
2018-07-25T09:21:04.118Z,34.68
2018-07-25T09:23:33.417Z,34.66
2018-07-25T09:26:02.839Z,36.32
2018-07-25T09:28:32.144Z,34.59
2018-07-25T09:31:01.503Z,33.66
2018-07-25T09:33:30.800Z,34.98
2018-07-25T09:36:00.150Z,34.53
2018-07-25T09:38:29.406Z,35.01
2018-07-25T09:40:58.878Z,33.52
2018-07-25T09:43:28.163Z,34.00
2018-07-25T09:45:57.589Z,34.58
2018-07-25T09:48:27.003Z,34.46
2018-07-25T09:50:56.343Z,33.15
2018-07-25T09:53:25.814Z,34.73
2018-07-25T09:55:54.998Z,33.72
2018-07-25T09:58:24.446Z,33.76
2018-07-25T10:00:53.846Z,34.78
2018-07-25T10:03:23.034Z,32.09
2018-07-25T10:05:52.341Z,32.71
2018-07-25T10:08:21.637Z,33.45
2018-07-25T10:10:51.912Z,34.35
2018-07-25T10:13:21.417Z,33.50
2018-07-25T10:15:50.656Z,33.48
2018-07-25T10:18:19.955Z,33.67
2018-07-25T10:20:49.336Z,33.16
2018-07-25T10:23:18.636Z,33.53
2018-07-25T10:25:48.228Z,33.27
2018-07-25T10:28:17.606Z,33.24
2018-07-25T10:30:46.874Z,33.47
2018-07-25T10:33:16.150Z,33.32
2018-07-25T10:35:45.423Z,34.31
2018-07-25T10:38:14.679Z,33.04
2018-07-25T10:40:44.015Z,32.83
2018-07-25T10:43:13.258Z,32.07
2018-07-25T10:45:42.572Z,33.26
2018-07-25T10:48:12.030Z,34.28
2018-07-25T10:50:41.312Z,33.81
2018-07-25T10:53:10.794Z,33.18
2018-07-25T10:55:40.111Z,32.56
2018-07-25T10:58:09.362Z,30.57
2018-07-25T11:00:38.838Z,31.35
2018-07-25T11:03:08.367Z,31.10
2018-07-25T11:05:37.766Z,30.97
2018-07-25T11:08:07.163Z,31.51
2018-07-25T11:10:36.201Z,31.25
2018-07-25T11:13:05.673Z,30.50
2018-07-25T11:15:35.118Z,29.03
2018-07-25T11:18:04.530Z,29.41
2018-07-25T11:20:33.875Z,29.42
2018-07-25T11:23:03.344Z,28.89
2018-07-25T11:25:33.238Z,28.83
2018-07-25T11:28:02.595Z,28.43
2018-07-25T11:30:31.922Z,29.37
2018-07-25T11:33:01.297Z,29.47
2018-07-25T11:35:30.846Z,29.12
2018-07-25T11:38:00.470Z,29.87
2018-07-25T11:40:29.873Z,28.03
2018-07-25T11:42:59.206Z,28.04
2018-07-25T11:45:28.674Z,26.31
2018-07-25T11:47:58.030Z,28.17
2018-07-25T11:50:27.419Z,28.08
2018-07-25T11:52:57.097Z,27.61
2018-07-25T11:55:26.521Z,28.11
2018-07-25T11:57:55.850Z,28.91
2018-07-25T12:00:25.227Z,29.22
2018-07-25T12:02:54.977Z,27.80
2018-07-25T12:05:24.354Z,27.04
2018-07-25T12:07:53.753Z,27.22
2018-07-25T12:10:23.071Z,27.95
2018-07-25T12:12:52.434Z,28.16
2018-07-25T12:15:21.840Z,28.61
2018-07-25T12:17:51.140Z,27.85
2018-07-25T12:20:20.653Z,27.81
2018-07-25T12:22:50.056Z,28.28
2018-07-25T12:25:19.449Z,29.38
2018-07-25T12:27:48.787Z,28.52
2018-07-25T12:30:18.090Z,28.48
2018-07-25T12:32:47.389Z,28.52
2018-07-25T12:35:16.683Z,28.30
2018-07-25T12:37:45.984Z,27.83
2018-07-25T12:40:15.466Z,26.92
2018-07-25T12:42:45.036Z,27.65
2018-07-25T12:45:14.874Z,27.32
2018-07-25T12:47:44.194Z,26.81
2018-07-25T12:50:13.504Z,26.24
2018-07-25T12:52:42.905Z,25.73
2018-07-25T12:55:12.229Z,26.49
2018-07-25T12:57:41.543Z,27.28
2018-07-25T13:00:10.991Z,26.16
2018-07-25T13:02:40.399Z,26.48
2018-07-25T13:05:09.790Z,25.67
2018-07-25T13:07:39.081Z,26.76
2018-07-25T13:10:08.498Z,27.36
2018-07-25T13:12:37.853Z,26.83
2018-07-25T13:15:07.409Z,27.34
2018-07-25T13:17:36.695Z,26.72
2018-07-25T13:20:06.962Z,26.45
2018-07-25T13:22:36.275Z,26.14
2018-07-25T13:25:05.945Z,26.70
2018-07-25T13:27:35.329Z,26.44
2018-07-25T13:30:05.387Z,26.33
2018-07-25T13:32:34.852Z,25.51
2018-07-25T13:35:04.127Z,25.14
2018-07-25T13:37:33.436Z,25.79
2018-07-25T13:40:02.786Z,23.21
2018-07-25T13:42:32.063Z,25.21
2018-07-25T13:45:01.396Z,25.27
2018-07-25T13:47:31.042Z,25.60
2018-07-25T13:50:00.372Z,26.02
2018-07-25T13:52:29.745Z,26.21
2018-07-25T13:54:59.062Z,25.78
2018-07-25T13:57:28.306Z,24.95
2018-07-25T13:59:57.580Z,24.72
2018-07-25T14:02:26.713Z,25.14
2018-07-25T14:04:56.048Z,25.74
2018-07-25T14:07:25.327Z,24.92
2018-07-25T14:09:54.688Z,24.30
2018-07-25T14:12:24.108Z,24.38
2018-07-25T14:14:53.463Z,24.69
2018-07-25T14:17:22.840Z,27.03
2018-07-25T14:19:52.379Z,28.27
2018-07-25T14:22:21.846Z,29.28
2018-07-25T14:24:51.248Z,28.96
2018-07-25T14:27:20.775Z,30.03
2018-07-25T14:29:50.102Z,30.84
2018-07-25T14:32:19.438Z,31.38
2018-07-25T14:34:48.855Z,29.77
2018-07-25T14:37:18.171Z,27.86
2018-07-25T14:39:47.841Z,26.83
2018-07-25T14:42:17.100Z,27.60
2018-07-25T14:44:46.863Z,25.67
2018-07-25T14:47:16.325Z,26.55
2018-07-25T14:49:45.747Z,25.24
2018-07-25T14:52:15.104Z,24.62
2018-07-25T14:54:44.453Z,24.71
2018-07-25T14:57:13.794Z,24.88
2018-07-25T14:59:42.848Z,23.76
2018-07-25T15:02:12.262Z,23.65
2018-07-25T15:04:41.544Z,23.94
2018-07-25T15:07:10.938Z,24.07
2018-07-25T15:09:40.270Z,24.54
2018-07-25T15:12:09.576Z,26.42
2018-07-25T15:14:39.407Z,27.21
2018-07-25T15:17:08.662Z,27.14
2018-07-25T15:19:38.619Z,26.51
2018-07-25T15:22:08.002Z,27.68
2018-07-25T15:24:37.235Z,28.55
2018-07-25T15:27:06.626Z,28.45
2018-07-25T15:29:36.079Z,28.41
2018-07-25T15:32:08.809Z,27.02
2018-07-25T15:34:38.136Z,27.04
2018-07-25T15:37:07.294Z,28.07
2018-07-25T15:39:36.604Z,27.76
2018-07-25T15:42:06.147Z,29.46
2018-07-25T15:44:35.494Z,28.46
2018-07-25T15:47:05.094Z,29.47
2018-07-25T15:49:34.382Z,29.78
2018-07-25T15:52:03.727Z,28.33
2018-07-25T15:54:33.591Z,29.33
2018-07-25T15:57:03.012Z,28.92
2018-07-25T15:59:32.407Z,28.93
2018-07-25T16:02:01.692Z,30.31
2018-07-25T16:04:31.179Z,28.55
2018-07-25T16:07:00.583Z,28.16
2018-07-25T16:09:29.950Z,28.89
2018-07-25T16:11:59.339Z,27.73
2018-07-25T16:14:30.027Z,27.68
2018-07-25T16:16:59.461Z,29.73
2018-07-25T16:19:28.750Z,28.76
2018-07-25T16:21:59.589Z,28.26
2018-07-25T16:24:28.941Z,29.46
2018-07-25T16:26:58.218Z,29.22
2018-07-25T16:29:27.597Z,29.14
2018-07-25T16:31:56.999Z,28.40
2018-07-25T16:34:26.322Z,27.98
2018-07-25T16:36:55.803Z,28.52
2018-07-25T16:39:24.974Z,29.14
2018-07-25T16:41:54.324Z,28.84
2018-07-25T16:44:23.707Z,28.86
2018-07-25T16:46:53.097Z,28.55
2018-07-25T16:49:22.511Z,29.54
2018-07-25T16:51:51.842Z,30.60
2018-07-25T16:54:21.226Z,29.57
2018-07-25T16:56:50.660Z,29.53
2018-07-25T16:59:20.054Z,28.85
2018-07-25T17:01:49.426Z,27.68
2018-07-25T17:04:18.673Z,26.52
2018-07-25T17:06:48.114Z,25.69
2018-07-25T17:09:17.441Z,25.94
2018-07-25T17:11:46.572Z,25.75
2018-07-25T17:14:17.207Z,25.53
2018-07-25T17:16:46.634Z,25.98
2018-07-25T17:19:15.870Z,25.74
2018-07-25T17:21:45.250Z,25.52
2018-07-25T17:24:14.559Z,25.14
2018-07-25T17:26:43.824Z,25.99
2018-07-25T17:29:13.153Z,25.00
2018-07-25T17:31:42.477Z,25.25
2018-07-25T17:34:12.085Z,25.66
2018-07-25T17:36:41.328Z,27.97
2018-07-25T17:39:11.731Z,28.72
2018-07-25T17:41:41.984Z,29.54
2018-07-25T17:44:11.302Z,29.07
2018-07-25T17:46:40.616Z,29.62
2018-07-25T17:49:10.276Z,31.15
2018-07-25T17:51:40.582Z,31.10
2018-07-25T17:54:09.849Z,32.06
2018-07-25T17:56:41.668Z,31.99
2018-07-25T17:59:11.237Z,33.09
2018-07-25T18:01:42.019Z,33.05
2018-07-25T18:04:13.319Z,34.09
2018-07-25T18:06:46.908Z,33.64
2018-07-25T18:09:16.209Z,33.78
2018-07-25T18:11:45.580Z,32.88
2018-07-25T18:14:15.865Z,34.03
2018-07-25T18:16:45.852Z,33.66
2018-07-25T18:19:16.041Z,33.83
2018-07-25T18:21:47.567Z,33.89
2018-07-25T18:24:16.896Z,35.17
2018-07-25T18:26:46.131Z,36.01
2018-07-25T18:29:15.407Z,34.62
2018-07-25T18:31:44.796Z,35.66
2018-07-25T18:34:14.110Z,37.17
2018-07-25T18:36:43.436Z,38.61
2018-07-25T18:39:13.203Z,38.29
2018-07-25T18:41:42.604Z,39.16
2018-07-25T18:44:11.894Z,40.29
2018-07-25T18:46:44.158Z,40.32
2018-07-25T18:49:14.954Z,40.43
2018-07-25T18:51:44.257Z,39.68
2018-07-25T18:54:13.998Z,38.23
2018-07-25T18:56:43.266Z,37.51
2018-07-25T18:59:12.499Z,37.87
2018-07-25T19:01:41.912Z,38.29
2018-07-25T19:04:11.265Z,38.43
2018-07-25T19:06:40.742Z,38.82
2018-07-25T19:09:14.877Z,38.93
2018-07-25T19:11:44.311Z,38.97
2018-07-25T19:14:18.809Z,38.39
2018-07-25T19:16:48.218Z,39.61
2018-07-25T19:19:17.536Z,50.14
2018-07-25T19:21:47.022Z,55.99
2018-07-25T19:24:16.379Z,59.32
2018-07-25T19:26:45.805Z,60.95
2018-07-25T19:29:15.541Z,63.51
2018-07-25T19:31:44.874Z,63.58
2018-07-25T19:34:14.304Z,63.63
2018-07-25T19:36:43.745Z,63.34
2018-07-25T19:39:13.037Z,64.53
2018-07-25T19:41:42.684Z,65.02
2018-07-25T19:44:12.267Z,65.41
2018-07-25T19:46:41.593Z,66.06
2018-07-25T19:49:11.153Z,66.63
2018-07-25T19:51:40.513Z,66.98
2018-07-25T19:54:09.830Z,66.24
2018-07-25T19:56:39.260Z,66.29
2018-07-25T19:59:08.702Z,66.72
2018-07-25T20:01:38.046Z,66.08
2018-07-25T20:04:07.395Z,64.82
2018-07-25T20:06:36.795Z,64.28
2018-07-25T20:09:08.655Z,63.04
2018-07-25T20:11:38.103Z,62.54
2018-07-25T20:14:12.722Z,62.69
2018-07-25T20:16:42.508Z,62.41
2018-07-25T20:19:12.319Z,62.60
2018-07-25T20:21:41.621Z,62.56
2018-07-25T20:24:10.975Z,61.76
2018-07-25T20:26:40.208Z,62.00
2018-07-25T20:29:09.465Z,62.69
2018-07-25T20:31:38.795Z,62.28
2018-07-25T20:34:08.106Z,62.45
2018-07-25T20:36:37.366Z,63.00
2018-07-25T20:39:10.866Z,63.00
2018-07-25T20:41:40.683Z,62.11
2018-07-25T20:44:10.883Z,62.61
2018-07-25T20:46:40.322Z,62.60
2018-07-25T20:49:09.666Z,62.22
2018-07-25T20:51:39.024Z,62.92
2018-07-25T20:54:08.334Z,63.41
2018-07-25T20:56:37.616Z,63.72
2018-07-25T20:59:06.966Z,61.85
2018-07-25T21:01:36.269Z,62.32
2018-07-25T21:04:05.678Z,63.20
2018-07-25T21:06:35.018Z,63.63
2018-07-25T21:09:05.588Z,63.72
2018-07-25T21:11:35.156Z,64.27
2018-07-25T21:14:04.535Z,65.40
2018-07-25T21:16:33.876Z,64.25
2018-07-25T21:19:03.201Z,63.59
2018-07-25T21:21:32.459Z,63.53
2018-07-25T21:24:01.682Z,63.07
2018-07-25T21:26:30.990Z,62.86
2018-07-25T21:29:00.417Z,62.60
2018-07-25T21:31:29.740Z,62.62
2018-07-25T21:33:58.770Z,61.88
2018-07-25T21:36:28.080Z,61.86
2018-07-25T21:38:57.345Z,62.17
2018-07-25T21:41:26.654Z,62.25
2018-07-25T21:43:56.014Z,63.23
2018-07-25T21:46:25.324Z,63.24
2018-07-25T21:48:54.620Z,64.02
2018-07-25T21:51:23.915Z,64.44
2018-07-25T21:53:53.218Z,65.21
2018-07-25T21:56:22.616Z,65.70
2018-07-25T21:58:51.819Z,65.96
2018-07-25T22:01:21.175Z,65.79
2018-07-25T22:03:50.427Z,64.27
2018-07-25T22:06:19.612Z,64.56
2018-07-25T22:08:49.010Z,65.14
2018-07-25T22:11:18.309Z,65.54
2018-07-25T22:13:52.710Z,65.42
2018-07-25T22:16:22.179Z,65.85
2018-07-25T22:18:51.457Z,64.97
2018-07-25T22:21:20.707Z,65.99
2018-07-25T22:23:49.978Z,65.61
2018-07-25T22:26:19.221Z,66.56
2018-07-25T22:28:48.456Z,67.75
2018-07-25T22:31:18.004Z,68.35
2018-07-25T22:33:47.249Z,69.45
2018-07-25T22:36:16.504Z,70.12
2018-07-25T22:38:45.733Z,71.33
2018-07-25T22:41:15.006Z,71.08
2018-07-25T22:43:44.302Z,70.13
2018-07-25T22:46:14.038Z,69.69
2018-07-25T22:48:43.305Z,70.58
2018-07-25T22:51:12.541Z,70.00
2018-07-25T22:53:42.606Z,69.96
2018-07-25T22:56:11.773Z,70.08
2018-07-25T22:58:41.033Z,70.58
2018-07-25T23:01:10.270Z,71.23
2018-07-25T23:03:39.486Z,71.13
2018-07-25T23:06:08.691Z,70.15
2018-07-25T23:08:37.957Z,70.55
2018-07-25T23:11:07.186Z,70.67
2018-07-25T23:13:36.551Z,71.04
2018-07-25T23:16:06.041Z,71.33
2018-07-25T23:18:35.343Z,71.66
2018-07-25T23:21:04.349Z,72.51
2018-07-25T23:23:33.611Z,72.95
2018-07-25T23:26:02.881Z,75.83
2018-07-25T23:28:32.153Z,76.91
2018-07-25T23:31:01.433Z,75.47
2018-07-25T23:33:30.798Z,74.63
2018-07-25T23:36:00.042Z,74.49
2018-07-25T23:38:29.476Z,74.78
2018-07-25T23:40:58.726Z,75.16
2018-07-25T23:43:28.058Z,74.32
2018-07-25T23:45:57.274Z,74.48
2018-07-25T23:48:26.537Z,74.57
2018-07-25T23:50:55.759Z,74.51
2018-07-25T23:53:25.042Z,74.40
2018-07-25T23:55:54.276Z,75.09
2018-07-25T23:58:24.187Z,75.89
